sensor_id;sensor_type;location;lat;lon;timestamp;temperature;humidity
290;DHT22;13193;48.874;9.086;2023-01-15T00:02:04;11.60;1.00
290;DHT22;13193;48.874;9.086;2023-01-15T00:04:30;11.60;1.00
290;DHT22;13193;48.874;9.086;2023-01-15T00:06:56;11.60;1.00
290;DHT22;13193;48.874;9.086;2023-01-15T00:09:21;11.60;1.00
290;DHT22;13193;48.874;9.086;2023-01-15T00:11:47;11.70;1.00
290;DHT22;13193;48.874;9.086;2023-01-15T00:14:12;11.70;1.00
290;DHT22;13193;48.874;9.086;2023-01-15T00:16:38;11.70;1.00
290;DHT22;13193;48.874;9.086;2023-01-15T00:19:05;11.70;1.00
290;DHT22;13193;48.874;9.086;2023-01-15T00:21:33;11.70;1.00
290;DHT22;13193;48.874;9.086;2023-01-15T00:23:59;11.70;1.00
290;DHT22;13193;48.874;9.086;2023-01-15T00:26:43;11.70;1.00
290;DHT22;13193;48.874;9.086;2023-01-15T00:29:27;11.70;1.00
290;DHT22;13193;48.874;9.086;2023-01-15T00:32:11;11.70;1.00
290;DHT22;13193;48.874;9.086;2023-01-15T00:34:36;11.70;1.00
290;DHT22;13193;48.874;9.086;2023-01-15T00:37:02;11.70;1.00
290;DHT22;13193;48.874;9.086;2023-01-15T00:39:28;11.80;1.00
290;DHT22;13193;48.874;9.086;2023-01-15T00:41:54;11.70;1.00
290;DHT22;13193;48.874;9.086;2023-01-15T00:44:20;11.80;1.00
290;DHT22;13193;48.874;9.086;2023-01-15T00:46:46;11.80;1.00
290;DHT22;13193;48.874;9.086;2023-01-15T00:49:12;11.90;1.00
290;DHT22;13193;48.874;9.086;2023-01-15T00:51:38;11.90;1.00
290;DHT22;13193;48.874;9.086;2023-01-15T00:54:04;11.90;1.00
290;DHT22;13193;48.874;9.086;2023-01-15T00:56:30;11.90;1.00
290;DHT22;13193;48.874;9.086;2023-01-15T00:58:56;12.00;1.00
290;DHT22;13193;48.874;9.086;2023-01-15T01:01:22;12.00;1.00
290;DHT22;13193;48.874;9.086;2023-01-15T01:03:47;12.00;1.00
290;DHT22;13193;48.874;9.086;2023-01-15T01:06:17;12.00;1.00
290;DHT22;13193;48.874;9.086;2023-01-15T01:08:43;11.90;1.00
290;DHT22;13193;48.874;9.086;2023-01-15T01:11:13;12.00;1.00
290;DHT22;13193;48.874;9.086;2023-01-15T01:13:40;11.90;1.00
290;DHT22;13193;48.874;9.086;2023-01-15T01:16:28;11.90;1.00
290;DHT22;13193;48.874;9.086;2023-01-15T01:18:56;12.00;1.00
290;DHT22;13193;48.874;9.086;2023-01-15T01:21:22;12.00;1.00
290;DHT22;13193;48.874;9.086;2023-01-15T01:23:48;12.00;1.00
290;DHT22;13193;48.874;9.086;2023-01-15T01:26:14;12.00;1.00
290;DHT22;13193;48.874;9.086;2023-01-15T01:28:41;12.00;1.00
290;DHT22;13193;48.874;9.086;2023-01-15T01:31:07;12.10;1.00
290;DHT22;13193;48.874;9.086;2023-01-15T01:33:33;12.00;1.00
290;DHT22;13193;48.874;9.086;2023-01-15T01:35:59;12.10;1.00
290;DHT22;13193;48.874;9.086;2023-01-15T01:38:25;12.10;1.00
290;DHT22;13193;48.874;9.086;2023-01-15T01:40:50;12.10;1.00
290;DHT22;13193;48.874;9.086;2023-01-15T01:43:19;12.20;1.00
290;DHT22;13193;48.874;9.086;2023-01-15T01:45:45;12.20;1.00
290;DHT22;13193;48.874;9.086;2023-01-15T01:48:11;12.20;1.00
290;DHT22;13193;48.874;9.086;2023-01-15T01:50:38;12.20;1.00
290;DHT22;13193;48.874;9.086;2023-01-15T01:53:13;12.30;1.00
290;DHT22;13193;48.874;9.086;2023-01-15T01:55:41;12.30;1.00
290;DHT22;13193;48.874;9.086;2023-01-15T01:58:09;12.40;1.00
290;DHT22;13193;48.874;9.086;2023-01-15T02:00:37;12.40;1.00
290;DHT22;13193;48.874;9.086;2023-01-15T02:03:06;12.30;1.00
290;DHT22;13193;48.874;9.086;2023-01-15T02:05:37;12.40;1.00
290;DHT22;13193;48.874;9.086;2023-01-15T02:08:04;12.40;1.00
290;DHT22;13193;48.874;9.086;2023-01-15T02:10:30;12.40;1.00
290;DHT22;13193;48.874;9.086;2023-01-15T02:13:00;12.50;1.00
290;DHT22;13193;48.874;9.086;2023-01-15T02:15:49;12.50;1.00
290;DHT22;13193;48.874;9.086;2023-01-15T02:21:00;12.50;1.00
290;DHT22;13193;48.874;9.086;2023-01-15T02:29:13;12.50;1.00
290;DHT22;13193;48.874;9.086;2023-01-15T02:31:42;12.50;1.00
290;DHT22;13193;48.874;9.086;2023-01-15T02:34:19;12.60;1.00
290;DHT22;13193;48.874;9.086;2023-01-15T02:36:51;12.60;1.00
290;DHT22;13193;48.874;9.086;2023-01-15T02:39:18;12.60;1.00
290;DHT22;13193;48.874;9.086;2023-01-15T02:41:48;12.60;1.00
290;DHT22;13193;48.874;9.086;2023-01-15T02:44:18;12.60;1.00
290;DHT22;13193;48.874;9.086;2023-01-15T02:46:45;12.60;1.00
290;DHT22;13193;48.874;9.086;2023-01-15T02:49:15;12.70;1.00
290;DHT22;13193;48.874;9.086;2023-01-15T02:52:07;12.70;1.00
290;DHT22;13193;48.874;9.086;2023-01-15T02:54:40;12.70;1.00
290;DHT22;13193;48.874;9.086;2023-01-15T02:57:09;12.60;1.00
290;DHT22;13193;48.874;9.086;2023-01-15T02:59:41;12.60;1.00
290;DHT22;13193;48.874;9.086;2023-01-15T03:02:12;12.50;1.00
290;DHT22;13193;48.874;9.086;2023-01-15T03:04:40;12.50;1.00
290;DHT22;13193;48.874;9.086;2023-01-15T03:07:15;12.60;1.00
290;DHT22;13193;48.874;9.086;2023-01-15T03:09:43;12.60;1.00
290;DHT22;13193;48.874;9.086;2023-01-15T03:12:14;12.60;1.00
290;DHT22;13193;48.874;9.086;2023-01-15T03:14:59;12.60;1.00
290;DHT22;13193;48.874;9.086;2023-01-15T03:17:44;12.60;1.00
290;DHT22;13193;48.874;9.086;2023-01-15T03:20:18;12.60;1.00
290;DHT22;13193;48.874;9.086;2023-01-15T03:22:50;12.60;1.00
290;DHT22;13193;48.874;9.086;2023-01-15T03:25:20;12.60;1.00
290;DHT22;13193;48.874;9.086;2023-01-15T03:27:47;12.70;1.00
290;DHT22;13193;48.874;9.086;2023-01-15T03:30:17;12.70;1.00
290;DHT22;13193;48.874;9.086;2023-01-15T03:32:43;12.60;1.00
290;DHT22;13193;48.874;9.086;2023-01-15T03:35:49;12.60;1.00
290;DHT22;13193;48.874;9.086;2023-01-15T03:38:19;12.60;1.00
290;DHT22;13193;48.874;9.086;2023-01-15T03:41:39;12.60;1.00
290;DHT22;13193;48.874;9.086;2023-01-15T03:46:41;12.60;1.00
290;DHT22;13193;48.874;9.086;2023-01-15T03:52:04;12.60;1.00
290;DHT22;13193;48.874;9.086;2023-01-15T03:57:29;12.60;1.00
290;DHT22;13193;48.874;9.086;2023-01-15T04:00:03;12.70;1.00
290;DHT22;13193;48.874;9.086;2023-01-15T04:02:31;12.70;1.00
290;DHT22;13193;48.874;9.086;2023-01-15T04:04:57;12.70;1.00
290;DHT22;13193;48.874;9.086;2023-01-15T04:07:24;12.70;1.00
290;DHT22;13193;48.874;9.086;2023-01-15T04:09:50;12.70;1.00
290;DHT22;13193;48.874;9.086;2023-01-15T04:12:16;12.70;1.00
290;DHT22;13193;48.874;9.086;2023-01-15T04:14:41;12.80;1.00
290;DHT22;13193;48.874;9.086;2023-01-15T04:17:07;12.80;1.00
290;DHT22;13193;48.874;9.086;2023-01-15T04:19:33;12.80;1.00
290;DHT22;13193;48.874;9.086;2023-01-15T04:21:58;12.80;1.00
290;DHT22;13193;48.874;9.086;2023-01-15T04:24:24;12.80;1.00
290;DHT22;13193;48.874;9.086;2023-01-15T04:26:50;12.80;1.00
290;DHT22;13193;48.874;9.086;2023-01-15T04:29:16;12.80;1.00
290;DHT22;13193;48.874;9.086;2023-01-15T04:31:41;12.90;1.00
290;DHT22;13193;48.874;9.086;2023-01-15T04:34:07;12.80;1.00
290;DHT22;13193;48.874;9.086;2023-01-15T04:36:33;12.80;1.00
290;DHT22;13193;48.874;9.086;2023-01-15T04:39:03;12.80;1.00
290;DHT22;13193;48.874;9.086;2023-01-15T04:41:29;12.80;1.00
290;DHT22;13193;48.874;9.086;2023-01-15T04:44:14;12.90;1.00
290;DHT22;13193;48.874;9.086;2023-01-15T04:46:42;12.90;1.00
290;DHT22;13193;48.874;9.086;2023-01-15T04:49:14;12.90;1.00
290;DHT22;13193;48.874;9.086;2023-01-15T04:51:40;12.80;1.00
290;DHT22;13193;48.874;9.086;2023-01-15T04:54:07;12.80;1.00
290;DHT22;13193;48.874;9.086;2023-01-15T04:56:41;12.80;1.00
290;DHT22;13193;48.874;9.086;2023-01-15T04:59:07;12.80;1.00
290;DHT22;13193;48.874;9.086;2023-01-15T05:01:33;12.80;1.00
290;DHT22;13193;48.874;9.086;2023-01-15T05:03:59;12.90;1.00
290;DHT22;13193;48.874;9.086;2023-01-15T05:06:25;12.60;1.00
290;DHT22;13193;48.874;9.086;2023-01-15T05:08:51;12.00;1.00
290;DHT22;13193;48.874;9.086;2023-01-15T05:11:17;11.40;1.00
290;DHT22;13193;48.874;9.086;2023-01-15T05:13:42;11.00;1.00
290;DHT22;13193;48.874;9.086;2023-01-15T05:16:09;10.40;1.00
290;DHT22;13193;48.874;9.086;2023-01-15T05:18:35;10.20;1.00
290;DHT22;13193;48.874;9.086;2023-01-15T05:21:01;10.00;1.00
290;DHT22;13193;48.874;9.086;2023-01-15T05:23:27;9.80;1.00
290;DHT22;13193;48.874;9.086;2023-01-15T05:25:52;9.70;1.00
290;DHT22;13193;48.874;9.086;2023-01-15T05:28:18;9.60;1.00
290;DHT22;13193;48.874;9.086;2023-01-15T05:30:44;9.50;1.00
290;DHT22;13193;48.874;9.086;2023-01-15T05:33:09;9.40;1.00
290;DHT22;13193;48.874;9.086;2023-01-15T05:35:35;9.30;1.00
290;DHT22;13193;48.874;9.086;2023-01-15T05:38:01;9.20;1.00
290;DHT22;13193;48.874;9.086;2023-01-15T05:40:30;9.00;1.00
290;DHT22;13193;48.874;9.086;2023-01-15T05:42:56;8.90;1.00
290;DHT22;13193;48.874;9.086;2023-01-15T05:45:21;8.80;1.00
290;DHT22;13193;48.874;9.086;2023-01-15T05:47:47;8.80;1.00
290;DHT22;13193;48.874;9.086;2023-01-15T05:50:12;8.80;1.00
290;DHT22;13193;48.874;9.086;2023-01-15T05:52:38;8.70;1.00
290;DHT22;13193;48.874;9.086;2023-01-15T05:55:04;8.60;1.00
290;DHT22;13193;48.874;9.086;2023-01-15T05:57:30;8.60;1.00
290;DHT22;13193;48.874;9.086;2023-01-15T05:59:58;8.50;1.00
290;DHT22;13193;48.874;9.086;2023-01-15T06:02:24;8.50;1.00
290;DHT22;13193;48.874;9.086;2023-01-15T06:04:49;8.50;1.00
290;DHT22;13193;48.874;9.086;2023-01-15T06:07:15;8.40;1.00
290;DHT22;13193;48.874;9.086;2023-01-15T06:09:43;8.40;1.00
290;DHT22;13193;48.874;9.086;2023-01-15T06:12:08;8.40;1.00
290;DHT22;13193;48.874;9.086;2023-01-15T06:14:34;8.40;1.00
290;DHT22;13193;48.874;9.086;2023-01-15T06:17:00;8.40;1.00
290;DHT22;13193;48.874;9.086;2023-01-15T06:19:25;8.40;1.00
290;DHT22;13193;48.874;9.086;2023-01-15T06:21:51;8.40;1.00
290;DHT22;13193;48.874;9.086;2023-01-15T06:24:18;8.30;1.00
290;DHT22;13193;48.874;9.086;2023-01-15T06:26:45;8.30;1.00
290;DHT22;13193;48.874;9.086;2023-01-15T06:29:11;8.30;1.00
290;DHT22;13193;48.874;9.086;2023-01-15T06:31:37;8.30;1.00
290;DHT22;13193;48.874;9.086;2023-01-15T06:34:03;8.30;1.00
290;DHT22;13193;48.874;9.086;2023-01-15T06:36:29;8.20;1.00
290;DHT22;13193;48.874;9.086;2023-01-15T06:38:55;8.10;1.00
290;DHT22;13193;48.874;9.086;2023-01-15T06:41:23;8.10;1.00
290;DHT22;13193;48.874;9.086;2023-01-15T06:44:17;8.00;1.00
290;DHT22;13193;48.874;9.086;2023-01-15T06:47:13;7.90;1.00
290;DHT22;13193;48.874;9.086;2023-01-15T06:49:45;7.90;1.00
290;DHT22;13193;48.874;9.086;2023-01-15T06:52:12;7.80;1.00
290;DHT22;13193;48.874;9.086;2023-01-15T06:54:38;7.80;1.00
290;DHT22;13193;48.874;9.086;2023-01-15T06:57:04;7.70;1.00
290;DHT22;13193;48.874;9.086;2023-01-15T06:59:30;7.60;1.00
290;DHT22;13193;48.874;9.086;2023-01-15T07:01:55;7.60;1.00
290;DHT22;13193;48.874;9.086;2023-01-15T07:04:21;7.60;1.00
290;DHT22;13193;48.874;9.086;2023-01-15T07:06:47;7.40;1.00
290;DHT22;13193;48.874;9.086;2023-01-15T07:09:12;7.40;1.00
290;DHT22;13193;48.874;9.086;2023-01-15T07:11:38;7.30;1.00
290;DHT22;13193;48.874;9.086;2023-01-15T07:14:23;7.20;1.00
290;DHT22;13193;48.874;9.086;2023-01-15T07:16:49;7.20;1.00
290;DHT22;13193;48.874;9.086;2023-01-15T07:19:15;7.10;1.00
290;DHT22;13193;48.874;9.086;2023-01-15T07:21:41;7.10;1.00
290;DHT22;13193;48.874;9.086;2023-01-15T07:24:07;7.10;1.00
290;DHT22;13193;48.874;9.086;2023-01-15T07:26:33;7.10;1.00
290;DHT22;13193;48.874;9.086;2023-01-15T07:28:59;7.10;1.00
290;DHT22;13193;48.874;9.086;2023-01-15T07:31:25;7.00;1.00
290;DHT22;13193;48.874;9.086;2023-01-15T07:33:50;7.00;1.00
290;DHT22;13193;48.874;9.086;2023-01-15T07:36:16;7.10;1.00
290;DHT22;13193;48.874;9.086;2023-01-15T07:38:41;7.10;1.00
290;DHT22;13193;48.874;9.086;2023-01-15T07:41:08;7.10;1.00
290;DHT22;13193;48.874;9.086;2023-01-15T07:43:52;7.10;1.00
290;DHT22;13193;48.874;9.086;2023-01-15T07:46:36;7.10;1.00
290;DHT22;13193;48.874;9.086;2023-01-15T07:49:20;7.10;1.00
290;DHT22;13193;48.874;9.086;2023-01-15T07:52:04;7.10;1.00
290;DHT22;13193;48.874;9.086;2023-01-15T07:54:30;7.20;1.00
290;DHT22;13193;48.874;9.086;2023-01-15T07:56:56;7.20;1.00
290;DHT22;13193;48.874;9.086;2023-01-15T07:59:22;7.20;1.00
290;DHT22;13193;48.874;9.086;2023-01-15T08:01:47;7.20;1.00
290;DHT22;13193;48.874;9.086;2023-01-15T08:04:13;7.20;1.00
290;DHT22;13193;48.874;9.086;2023-01-15T08:06:39;7.20;1.00
290;DHT22;13193;48.874;9.086;2023-01-15T08:09:04;7.30;1.00
290;DHT22;13193;48.874;9.086;2023-01-15T08:11:32;7.30;1.00
290;DHT22;13193;48.874;9.086;2023-01-15T08:14:16;7.30;1.00
290;DHT22;13193;48.874;9.086;2023-01-15T08:17:02;7.30;1.00
290;DHT22;13193;48.874;9.086;2023-01-15T08:19:27;7.30;1.00
290;DHT22;13193;48.874;9.086;2023-01-15T08:21:55;7.20;1.00
290;DHT22;13193;48.874;9.086;2023-01-15T08:24:24;7.20;1.00
290;DHT22;13193;48.874;9.086;2023-01-15T08:26:53;7.20;1.00
290;DHT22;13193;48.874;9.086;2023-01-15T08:29:20;7.20;1.00
290;DHT22;13193;48.874;9.086;2023-01-15T08:31:46;7.20;1.00
290;DHT22;13193;48.874;9.086;2023-01-15T08:34:11;7.30;1.00
290;DHT22;13193;48.874;9.086;2023-01-15T08:36:37;7.30;1.00
290;DHT22;13193;48.874;9.086;2023-01-15T08:39:03;7.30;1.00
290;DHT22;13193;48.874;9.086;2023-01-15T08:41:29;7.30;1.00
290;DHT22;13193;48.874;9.086;2023-01-15T08:43:55;7.20;1.00
290;DHT22;13193;48.874;9.086;2023-01-15T08:46:21;7.20;1.00
290;DHT22;13193;48.874;9.086;2023-01-15T08:48:46;7.30;1.00
290;DHT22;13193;48.874;9.086;2023-01-15T08:51:13;7.30;1.00
290;DHT22;13193;48.874;9.086;2023-01-15T08:53:39;7.30;1.00
290;DHT22;13193;48.874;9.086;2023-01-15T08:56:11;7.30;1.00
290;DHT22;13193;48.874;9.086;2023-01-15T08:58:37;7.30;1.00
290;DHT22;13193;48.874;9.086;2023-01-15T09:01:07;7.20;1.00
290;DHT22;13193;48.874;9.086;2023-01-15T09:03:33;7.10;1.00
290;DHT22;13193;48.874;9.086;2023-01-15T09:06:00;7.10;1.00
290;DHT22;13193;48.874;9.086;2023-01-15T09:08:28;7.00;1.00
290;DHT22;13193;48.874;9.086;2023-01-15T09:10:59;7.00;1.00
290;DHT22;13193;48.874;9.086;2023-01-15T09:13:25;6.90;1.00
290;DHT22;13193;48.874;9.086;2023-01-15T09:15:51;7.00;1.00
290;DHT22;13193;48.874;9.086;2023-01-15T09:18:17;7.00;1.00
290;DHT22;13193;48.874;9.086;2023-01-15T09:20:45;7.00;1.00
290;DHT22;13193;48.874;9.086;2023-01-15T09:23:11;7.10;1.00
290;DHT22;13193;48.874;9.086;2023-01-15T09:25:36;7.10;1.00
290;DHT22;13193;48.874;9.086;2023-01-15T09:28:02;7.20;1.00
290;DHT22;13193;48.874;9.086;2023-01-15T09:30:28;7.20;1.00
290;DHT22;13193;48.874;9.086;2023-01-15T09:32:54;7.20;1.00
290;DHT22;13193;48.874;9.086;2023-01-15T09:35:20;7.30;1.00
290;DHT22;13193;48.874;9.086;2023-01-15T09:37:53;7.30;1.00
290;DHT22;13193;48.874;9.086;2023-01-15T09:43:21;7.50;1.00
290;DHT22;13193;48.874;9.086;2023-01-15T09:45:58;7.50;1.00
290;DHT22;13193;48.874;9.086;2023-01-15T09:48:48;7.50;1.00
290;DHT22;13193;48.874;9.086;2023-01-15T09:51:35;7.60;1.00
290;DHT22;13193;48.874;9.086;2023-01-15T09:57:11;7.50;1.00
290;DHT22;13193;48.874;9.086;2023-01-15T09:59:42;7.50;1.00
290;DHT22;13193;48.874;9.086;2023-01-15T10:10:12;7.40;1.00
290;DHT22;13193;48.874;9.086;2023-01-15T10:12:39;7.30;1.00
290;DHT22;13193;48.874;9.086;2023-01-15T10:15:31;7.30;1.00
290;DHT22;13193;48.874;9.086;2023-01-15T10:18:00;7.30;1.00
290;DHT22;13193;48.874;9.086;2023-01-15T10:23:55;7.30;1.00
290;DHT22;13193;48.874;9.086;2023-01-15T10:31:54;7.10;1.00
290;DHT22;13193;48.874;9.086;2023-01-15T10:40:09;6.80;1.00
290;DHT22;13193;48.874;9.086;2023-01-15T10:45:23;6.50;1.00
290;DHT22;13193;48.874;9.086;2023-01-15T10:50:53;6.30;1.00
290;DHT22;13193;48.874;9.086;2023-01-15T10:53:26;6.30;1.00
290;DHT22;13193;48.874;9.086;2023-01-15T11:01:13;6.10;1.00
290;DHT22;13193;48.874;9.086;2023-01-15T11:03:42;6.00;1.00
290;DHT22;13193;48.874;9.086;2023-01-15T11:06:17;6.00;1.00
290;DHT22;13193;48.874;9.086;2023-01-15T11:08:48;6.00;1.00
290;DHT22;13193;48.874;9.086;2023-01-15T11:14:09;6.00;1.00
290;DHT22;13193;48.874;9.086;2023-01-15T11:16:53;6.00;1.00
290;DHT22;13193;48.874;9.086;2023-01-15T11:19:39;6.00;1.00
290;DHT22;13193;48.874;9.086;2023-01-15T11:22:11;6.00;1.00
290;DHT22;13193;48.874;9.086;2023-01-15T11:24:50;6.00;1.00
290;DHT22;13193;48.874;9.086;2023-01-15T11:27:19;5.90;1.00
290;DHT22;13193;48.874;9.086;2023-01-15T11:29:51;5.80;1.00
290;DHT22;13193;48.874;9.086;2023-01-15T11:32:33;5.70;1.00
290;DHT22;13193;48.874;9.086;2023-01-15T11:35:01;5.70;1.00
290;DHT22;13193;48.874;9.086;2023-01-15T11:37:29;5.60;1.00
290;DHT22;13193;48.874;9.086;2023-01-15T11:39:59;5.60;1.00
290;DHT22;13193;48.874;9.086;2023-01-15T11:42:36;5.60;1.00
290;DHT22;13193;48.874;9.086;2023-01-15T11:45:22;5.60;1.00
290;DHT22;13193;48.874;9.086;2023-01-15T11:48:17;5.60;1.00
290;DHT22;13193;48.874;9.086;2023-01-15T11:51:06;5.70;1.00
290;DHT22;13193;48.874;9.086;2023-01-15T11:53:37;5.60;1.00
290;DHT22;13193;48.874;9.086;2023-01-15T11:56:08;5.70;1.00
290;DHT22;13193;48.874;9.086;2023-01-15T11:58:45;5.70;1.00
290;DHT22;13193;48.874;9.086;2023-01-15T12:01:33;5.70;1.00
290;DHT22;13193;48.874;9.086;2023-01-15T12:04:17;5.80;1.00
290;DHT22;13193;48.874;9.086;2023-01-15T12:06:46;5.80;1.00
290;DHT22;13193;48.874;9.086;2023-01-15T12:10:15;5.80;1.00
290;DHT22;13193;48.874;9.086;2023-01-15T12:15:26;5.90;1.00
290;DHT22;13193;48.874;9.086;2023-01-15T12:21:01;6.00;1.00
290;DHT22;13193;48.874;9.086;2023-01-15T12:29:44;6.10;1.00
290;DHT22;13193;48.874;9.086;2023-01-15T12:32:15;6.20;1.00
290;DHT22;13193;48.874;9.086;2023-01-15T12:35:05;6.20;1.00
290;DHT22;13193;48.874;9.086;2023-01-15T12:37:57;6.30;1.00
290;DHT22;13193;48.874;9.086;2023-01-15T12:40:28;6.40;1.00
290;DHT22;13193;48.874;9.086;2023-01-15T12:42:57;6.40;1.00
290;DHT22;13193;48.874;9.086;2023-01-15T12:45:47;6.40;1.00
290;DHT22;13193;48.874;9.086;2023-01-15T12:48:51;6.40;1.00
290;DHT22;13193;48.874;9.086;2023-01-15T12:51:23;6.50;1.00
290;DHT22;13193;48.874;9.086;2023-01-15T12:53:56;6.60;1.00
290;DHT22;13193;48.874;9.086;2023-01-15T12:56:27;6.80;1.00
290;DHT22;13193;48.874;9.086;2023-01-15T12:59:01;6.90;1.00
290;DHT22;13193;48.874;9.086;2023-01-15T13:04:21;7.10;1.00
290;DHT22;13193;48.874;9.086;2023-01-15T13:06:57;7.20;1.00
290;DHT22;13193;48.874;9.086;2023-01-15T13:12:40;7.40;1.00
290;DHT22;13193;48.874;9.086;2023-01-15T13:15:06;7.40;1.00
290;DHT22;13193;48.874;9.086;2023-01-15T13:20:35;7.40;1.00
290;DHT22;13193;48.874;9.086;2023-01-15T13:23:34;7.40;1.00
290;DHT22;13193;48.874;9.086;2023-01-15T13:33:54;7.30;1.00
290;DHT22;13193;48.874;9.086;2023-01-15T13:38:52;7.30;1.00
290;DHT22;13193;48.874;9.086;2023-01-15T13:41:23;7.20;1.00
290;DHT22;13193;48.874;9.086;2023-01-15T13:44:18;7.10;1.00
290;DHT22;13193;48.874;9.086;2023-01-15T13:46:46;6.90;1.00
290;DHT22;13193;48.874;9.086;2023-01-15T13:49:20;6.80;1.00
290;DHT22;13193;48.874;9.086;2023-01-15T13:51:48;6.70;1.00
290;DHT22;13193;48.874;9.086;2023-01-15T13:54:19;6.60;1.00
290;DHT22;13193;48.874;9.086;2023-01-15T13:56:48;6.50;1.00
290;DHT22;13193;48.874;9.086;2023-01-15T13:59:42;6.40;1.00
290;DHT22;13193;48.874;9.086;2023-01-15T14:02:29;6.40;1.00
290;DHT22;13193;48.874;9.086;2023-01-15T14:04:56;6.30;1.00
290;DHT22;13193;48.874;9.086;2023-01-15T14:07:42;6.20;1.00
290;DHT22;13193;48.874;9.086;2023-01-15T14:23:41;6.10;1.00
290;DHT22;13193;48.874;9.086;2023-01-15T14:36:55;6.20;1.00
290;DHT22;13193;48.874;9.086;2023-01-15T14:39:37;6.00;1.00
290;DHT22;13193;48.874;9.086;2023-01-15T14:42:30;6.00;1.00
290;DHT22;13193;48.874;9.086;2023-01-15T14:47:50;6.00;1.00
290;DHT22;13193;48.874;9.086;2023-01-15T14:50:27;5.90;1.00
290;DHT22;13193;48.874;9.086;2023-01-15T14:53:33;5.90;1.00
290;DHT22;13193;48.874;9.086;2023-01-15T14:56:00;5.90;1.00
290;DHT22;13193;48.874;9.086;2023-01-15T15:04:22;5.80;1.00
290;DHT22;13193;48.874;9.086;2023-01-15T15:06:56;5.80;1.00
290;DHT22;13193;48.874;9.086;2023-01-15T15:09:43;5.70;1.00
290;DHT22;13193;48.874;9.086;2023-01-15T15:12:21;5.70;1.00
290;DHT22;13193;48.874;9.086;2023-01-15T15:17:59;5.60;1.00
290;DHT22;13193;48.874;9.086;2023-01-15T15:23:23;5.50;1.00
290;DHT22;13193;48.874;9.086;2023-01-15T15:26:03;5.50;1.00
290;DHT22;13193;48.874;9.086;2023-01-15T15:28:29;5.50;1.00
290;DHT22;13193;48.874;9.086;2023-01-15T15:30:55;5.50;1.00
290;DHT22;13193;48.874;9.086;2023-01-15T15:33:44;5.50;1.00
290;DHT22;13193;48.874;9.086;2023-01-15T15:36:09;5.50;1.00
290;DHT22;13193;48.874;9.086;2023-01-15T15:38:35;5.40;1.00
290;DHT22;13193;48.874;9.086;2023-01-15T15:41:07;5.30;1.00
290;DHT22;13193;48.874;9.086;2023-01-15T15:43:52;5.30;1.00
290;DHT22;13193;48.874;9.086;2023-01-15T15:46:48;5.30;1.00
290;DHT22;13193;48.874;9.086;2023-01-15T15:49:40;5.20;1.00
290;DHT22;13193;48.874;9.086;2023-01-15T15:52:20;5.20;1.00
290;DHT22;13193;48.874;9.086;2023-01-15T15:54:57;5.10;1.00
290;DHT22;13193;48.874;9.086;2023-01-15T15:57:23;5.00;1.00
290;DHT22;13193;48.874;9.086;2023-01-15T15:59:51;4.90;1.00
290;DHT22;13193;48.874;9.086;2023-01-15T16:02:20;4.90;1.00
290;DHT22;13193;48.874;9.086;2023-01-15T16:04:53;4.80;1.00
290;DHT22;13193;48.874;9.086;2023-01-15T16:07:25;4.80;1.00
290;DHT22;13193;48.874;9.086;2023-01-15T16:09:53;4.70;1.00
290;DHT22;13193;48.874;9.086;2023-01-15T16:12:21;4.70;1.00
290;DHT22;13193;48.874;9.086;2023-01-15T16:14:48;4.60;1.00
290;DHT22;13193;48.874;9.086;2023-01-15T16:17:14;4.50;1.00
290;DHT22;13193;48.874;9.086;2023-01-15T16:19:41;4.40;1.00
290;DHT22;13193;48.874;9.086;2023-01-15T16:22:09;4.30;1.00
290;DHT22;13193;48.874;9.086;2023-01-15T16:24:36;4.30;1.00
290;DHT22;13193;48.874;9.086;2023-01-15T16:27:06;4.30;1.00
290;DHT22;13193;48.874;9.086;2023-01-15T16:29:35;4.30;1.00
290;DHT22;13193;48.874;9.086;2023-01-15T16:32:12;4.30;1.00
290;DHT22;13193;48.874;9.086;2023-01-15T16:34:38;4.20;1.00
290;DHT22;13193;48.874;9.086;2023-01-15T16:37:24;4.20;1.00
290;DHT22;13193;48.874;9.086;2023-01-15T16:39:50;4.20;1.00
290;DHT22;13193;48.874;9.086;2023-01-15T16:44:59;4.00;1.00
290;DHT22;13193;48.874;9.086;2023-01-15T16:47:28;4.00;1.00
290;DHT22;13193;48.874;9.086;2023-01-15T16:52:50;4.00;1.00
290;DHT22;13193;48.874;9.086;2023-01-15T17:03:50;4.00;1.00
290;DHT22;13193;48.874;9.086;2023-01-15T17:06:21;3.90;1.00
290;DHT22;13193;48.874;9.086;2023-01-15T17:08:49;3.90;1.00
290;DHT22;13193;48.874;9.086;2023-01-15T17:11:25;3.90;1.00
290;DHT22;13193;48.874;9.086;2023-01-15T17:14:09;3.90;1.00
290;DHT22;13193;48.874;9.086;2023-01-15T17:16:35;3.80;1.00
290;DHT22;13193;48.874;9.086;2023-01-15T17:19:04;3.80;1.00
290;DHT22;13193;48.874;9.086;2023-01-15T17:21:32;3.80;1.00
290;DHT22;13193;48.874;9.086;2023-01-15T17:23:58;3.80;1.00
290;DHT22;13193;48.874;9.086;2023-01-15T17:26:28;3.80;1.00
290;DHT22;13193;48.874;9.086;2023-01-15T17:28:54;3.70;1.00
290;DHT22;13193;48.874;9.086;2023-01-15T17:31:28;3.70;1.00
290;DHT22;13193;48.874;9.086;2023-01-15T17:33:58;3.70;1.00
290;DHT22;13193;48.874;9.086;2023-01-15T17:36:24;3.70;1.00
290;DHT22;13193;48.874;9.086;2023-01-15T17:38:50;3.70;1.00
290;DHT22;13193;48.874;9.086;2023-01-15T17:41:17;3.70;1.00
290;DHT22;13193;48.874;9.086;2023-01-15T17:43:43;3.70;1.00
290;DHT22;13193;48.874;9.086;2023-01-15T17:46:08;3.70;1.00
290;DHT22;13193;48.874;9.086;2023-01-15T17:48:34;3.70;1.00
290;DHT22;13193;48.874;9.086;2023-01-15T17:51:05;3.60;1.00
290;DHT22;13193;48.874;9.086;2023-01-15T17:53:31;3.50;1.00
290;DHT22;13193;48.874;9.086;2023-01-15T17:56:03;3.50;1.00
290;DHT22;13193;48.874;9.086;2023-01-15T17:58:47;3.50;1.00
290;DHT22;13193;48.874;9.086;2023-01-15T18:01:35;3.60;1.00
290;DHT22;13193;48.874;9.086;2023-01-15T18:04:27;3.60;1.00
290;DHT22;13193;48.874;9.086;2023-01-15T18:07:14;3.70;1.00
290;DHT22;13193;48.874;9.086;2023-01-15T18:09:40;3.60;1.00
290;DHT22;13193;48.874;9.086;2023-01-15T18:12:07;3.60;1.00
290;DHT22;13193;48.874;9.086;2023-01-15T18:14:33;3.70;1.00
290;DHT22;13193;48.874;9.086;2023-01-15T18:16:59;3.70;1.00
290;DHT22;13193;48.874;9.086;2023-01-15T18:19:25;3.70;1.00
290;DHT22;13193;48.874;9.086;2023-01-15T18:21:51;3.70;1.00
290;DHT22;13193;48.874;9.086;2023-01-15T18:24:16;3.60;1.00
290;DHT22;13193;48.874;9.086;2023-01-15T18:26:46;3.60;1.00
290;DHT22;13193;48.874;9.086;2023-01-15T18:29:11;3.60;1.00
290;DHT22;13193;48.874;9.086;2023-01-15T18:31:37;3.60;1.00
290;DHT22;13193;48.874;9.086;2023-01-15T18:34:03;3.70;1.00
290;DHT22;13193;48.874;9.086;2023-01-15T18:36:29;3.70;1.00
290;DHT22;13193;48.874;9.086;2023-01-15T18:38:55;3.80;1.00
290;DHT22;13193;48.874;9.086;2023-01-15T18:41:26;3.70;1.00
290;DHT22;13193;48.874;9.086;2023-01-15T18:44:05;3.70;1.00
290;DHT22;13193;48.874;9.086;2023-01-15T18:46:55;3.80;1.00
290;DHT22;13193;48.874;9.086;2023-01-15T18:49:21;3.80;1.00
290;DHT22;13193;48.874;9.086;2023-01-15T18:51:47;3.80;1.00
290;DHT22;13193;48.874;9.086;2023-01-15T18:54:32;3.80;1.00
290;DHT22;13193;48.874;9.086;2023-01-15T18:56:58;3.80;1.00
290;DHT22;13193;48.874;9.086;2023-01-15T18:59:23;3.80;1.00
290;DHT22;13193;48.874;9.086;2023-01-15T19:01:49;3.80;1.00
290;DHT22;13193;48.874;9.086;2023-01-15T19:04:14;3.80;1.00
290;DHT22;13193;48.874;9.086;2023-01-15T19:06:40;3.80;1.00
290;DHT22;13193;48.874;9.086;2023-01-15T19:09:07;3.80;1.00
290;DHT22;13193;48.874;9.086;2023-01-15T19:11:34;3.80;1.00
290;DHT22;13193;48.874;9.086;2023-01-15T19:14:00;3.80;1.00
290;DHT22;13193;48.874;9.086;2023-01-15T19:16:44;3.80;1.00
290;DHT22;13193;48.874;9.086;2023-01-15T19:19:29;3.80;1.00